Time;durP1;ratioP1;P1;durP2;ratioP2;P2;SDS_P1;SDS_P2;PMS_P1;PMS_P2;Temp;Humidity;BMP_temperature;BMP_pressure;BME280_temperature;BME280_humidity;BME280_pressure;Samples;Min_cycle;Max_cycle;Signal;HPM_P1;HPM_P2
2021/03/28 00:01:58;;;;;;;1.20;0.80;;;20.60;40.00;;;;;;5081690;28;20021;-54
2021/03/28 00:04:26;;;;;;;2.10;0.90;;;20.50;40.00;;;;;;5086688;28;20078;-50
2021/03/28 00:07:00;;;;;;;1.35;0.70;;;20.50;39.90;;;;;;5073076;28;20359;-54
2021/03/28 00:09:42;;;;;;;1.42;0.80;;;20.60;40.00;;;;;;5074432;28;20032;-54
2021/03/28 00:12:23;;;;;;;2.93;1.23;;;20.60;40.00;;;;;;5087425;28;20040;-53
2021/03/28 00:15:10;;;;;;;1.73;0.95;;;20.60;40.00;;;;;;5072961;28;20060;-55
2021/03/28 00:17:51;;;;;;;2.15;0.90;;;20.60;40.00;;;;;;5084269;28;20020;-54
2021/03/28 00:20:17;;;;;;;1.40;0.83;;;20.60;40.00;;;;;;5091944;28;20030;-54
2021/03/28 00:22:49;;;;;;;2.67;1.13;;;20.60;40.00;;;;;;5087570;28;20025;-50
2021/03/28 00:25:31;;;;;;;2.10;0.90;;;20.60;40.00;;;;;;5087448;28;20111;-51
2021/03/28 00:27:58;;;;;;;3.75;0.90;;;20.60;40.00;;;;;;5075573;28;20024;-51
2021/03/28 00:30:32;;;;;;;1.63;0.93;;;20.60;40.00;;;;;;5080281;28;20052;-53
2021/03/28 00:33:21;;;;;;;1.70;0.93;;;20.60;40.00;;;;;;5085125;28;20115;-52
2021/03/28 00:35:52;;;;;;;3.35;0.90;;;20.60;40.00;;;;;;5071618;28;20834;-53
2021/03/28 00:38:20;;;;;;;2.05;0.95;;;20.60;40.00;;;;;;5086504;28;20099;-50
2021/03/28 00:41:07;;;;;;;3.60;1.13;;;20.60;40.00;;;;;;5078517;28;20158;-51
2021/03/28 00:43:59;;;;;;;3.78;1.00;;;20.60;40.00;;;;;;5091321;28;20030;-51
2021/03/28 00:46:32;;;;;;;;;;;20.50;40.00;;;;;;5085306;28;20031;-51
2021/03/28 00:49:00;;;;;;;1.90;0.80;;;20.60;40.00;;;;;;5079675;28;20250;-50
2021/03/28 00:51:28;;;;;;;1.75;1.00;;;20.60;40.00;;;;;;5079605;28;20035;-54
2021/03/28 00:54:16;;;;;;;4.03;1.45;;;20.60;40.00;;;;;;5079308;28;20091;-52
2021/03/28 00:56:48;;;;;;;2.42;0.68;;;20.60;40.00;;;;;;5079888;28;20024;-53
2021/03/28 00:59:18;;;;;;;1.85;0.70;;;20.60;40.00;;;;;;5079509;28;20028;-52
2021/03/28 01:02:06;;;;;;;1.58;0.75;;;20.60;40.00;;;;;;5088551;28;20213;-53
2021/03/28 01:05:11;;;;;;;3.42;0.90;;;20.60;40.00;;;;;;5073903;28;20389;-52
2021/03/28 01:07:42;;;;;;;3.53;1.13;;;20.60;40.00;;;;;;5072148;28;20555;-53
2021/03/28 01:10:19;;;;;;;2.90;0.90;;;20.60;39.90;;;;;;5071265;28;20082;-54
2021/03/28 01:13:10;;;;;;;1.52;0.90;;;20.60;40.00;;;;;;5081164;28;20048;-53
2021/03/28 01:16:00;;;;;;;1.95;0.88;;;20.60;39.90;;;;;;5088485;28;20028;-52
2021/03/28 01:18:38;;;;;;;2.33;1.08;;;20.60;39.90;;;;;;5090400;28;20043;-51
2021/03/28 01:21:18;;;;;;;3.25;1.10;;;20.60;39.90;;;;;;5082199;28;20024;-52
2021/03/28 01:23:46;;;;;;;2.10;0.70;;;20.60;39.90;;;;;;5077161;28;20032;-53
2021/03/28 01:26:34;;;;;;;3.67;0.88;;;20.60;39.90;;;;;;5072231;28;20033;-51
2021/03/28 01:29:11;;;;;;;1.40;0.70;;;20.60;39.90;;;;;;5087481;28;20035;-50
2021/03/28 01:31:57;;;;;;;1.77;1.15;;;20.60;39.80;;;;;;5084819;28;20046;-52
2021/03/28 01:34:35;;;;;;;3.80;0.88;;;20.60;39.90;;;;;;5078039;28;20062;-54
2021/03/28 01:37:10;;;;;;;2.63;0.90;;;20.60;39.80;;;;;;5072312;28;20031;-51
2021/03/28 01:40:08;;;;;;;4.07;1.45;;;20.60;39.90;;;;;;5072136;28;20025;-53
2021/03/28 01:43:05;;;;;;;1.90;0.80;;;20.60;39.90;;;;;;5072454;28;20028;-53
2021/03/28 01:45:44;;;;;;;3.38;0.98;;;20.60;39.90;;;;;;5041784;28;20039;-50
2021/03/28 01:48:23;;;;;;;2.70;1.27;;;20.60;39.90;;;;;;5072029;28;20030;-51
2021/03/28 01:51:02;;;;;;;3.75;0.95;;;20.60;39.90;;;;;;5081049;28;20031;-54
2021/03/28 01:53:44;;;;;;;1.27;0.73;;;20.60;39.90;;;;;;5084840;28;20533;-50
2021/03/28 01:56:36;;;;;;;1.02;0.70;;;20.60;39.90;;;;;;5079538;28;20037;-49
2021/03/28 01:59:07;;;;;;;2.22;0.90;;;20.60;39.90;;;;;;5088036;28;20533;-48
2021/03/28 02:01:45;;;;;;;3.10;1.13;;;20.70;39.90;;;;;;5078565;28;20016;-50
2021/03/28 02:04:22;;;;;;;4.57;1.17;;;20.60;39.90;;;;;;5089494;28;20035;-52
2021/03/28 02:07:17;;;;;;;1.33;0.80;;;20.60;39.90;;;;;;5071660;28;20086;-49
2021/03/28 02:09:48;;;;;;;1.48;0.70;;;20.60;39.90;;;;;;5070656;28;20021;-54
2021/03/28 02:12:32;;;;;;;1.90;0.80;;;20.60;39.90;;;;;;5071800;28;20025;-48
2021/03/28 02:15:35;;;;;;;2.80;0.80;;;20.70;40.00;;;;;;5084067;28;20108;-49
2021/03/28 02:18:28;;;;;;;2.40;1.00;;;20.70;39.90;;;;;;5081529;28;20464;-53
2021/03/28 02:21:32;;;;;;;2.97;0.80;;;20.70;39.90;;;;;;5080387;28;20025;-47
2021/03/28 02:24:29;;;;;;;2.17;0.90;;;20.70;39.90;;;;;;5073660;28;20044;-48
2021/03/28 02:27:39;;;;;;;2.25;1.00;;;20.60;39.90;;;;;;5087637;28;20058;-52
2021/03/28 02:30:28;;;;;;;1.42;0.73;;;20.60;39.80;;;;;;5065737;28;20036;-55
2021/03/28 02:32:53;;;;;;;2.22;0.82;;;20.60;39.80;;;;;;5059643;28;20055;-50
2021/03/28 02:35:56;;;;;;;1.70;0.80;;;20.60;39.80;;;;;;5076766;28;20473;-52
2021/03/28 02:38:46;;;;;;;1.27;0.70;;;20.70;39.90;;;;;;5095228;28;20036;-52
2021/03/28 02:41:34;;;;;;;1.40;0.70;;;20.60;39.80;;;;;;5085077;28;20032;-51
2021/03/28 02:44:26;;;;;;;2.92;1.27;;;20.60;39.80;;;;;;5060772;28;20048;-53
2021/03/28 02:47:04;;;;;;;2.27;0.97;;;20.60;39.80;;;;;;5089279;28;20032;-54
2021/03/28 02:49:58;;;;;;;1.80;0.80;;;20.60;39.80;;;;;;5094702;28;20310;-51
2021/03/28 02:52:49;;;;;;;2.47;0.85;;;20.60;39.80;;;;;;5092651;28;20036;-47
2021/03/28 02:55:33;;;;;;;1.55;1.00;;;20.70;39.90;;;;;;5091533;28;20036;-52
2021/03/28 02:58:07;;;;;;;1.20;0.80;;;20.60;39.80;;;;;;5087427;28;20036;-53
2021/03/28 03:00:54;;;;;;;1.58;0.80;;;20.60;39.80;;;;;;5082510;28;20109;-53
2021/03/28 03:03:47;;;;;;;1.30;0.80;;;20.70;39.90;;;;;;5075164;28;20033;-52
2021/03/28 03:06:37;;;;;;;3.10;0.90;;;20.70;39.90;;;;;;5085937;28;20036;-51
2021/03/28 03:09:30;;;;;;;2.35;0.80;;;20.60;39.80;;;;;;5093233;28;20479;-52
2021/03/28 03:12:38;;;;;;;1.90;0.90;;;20.60;39.80;;;;;;5073276;28;20028;-53
2021/03/28 03:15:12;;;;;;;2.42;0.70;;;20.70;39.90;;;;;;5074313;28;20041;-52
2021/03/28 03:18:02;;;;;;;1.48;0.90;;;20.60;39.80;;;;;;5074092;28;20028;-51
2021/03/28 03:21:01;;;;;;;2.75;0.90;;;20.60;39.80;;;;;;5075732;28;20567;-47
2021/03/28 03:23:32;;;;;;;1.83;0.75;;;20.60;39.90;;;;;;5091894;28;20423;-48
2021/03/28 03:26:34;;;;;;;2.15;0.80;;;20.70;39.90;;;;;;5087225;28;20028;-53
2021/03/28 03:29:03;;;;;;;1.02;0.70;;;20.70;39.90;;;;;;5075434;28;20044;-49
2021/03/28 03:31:47;;;;;;;1.20;0.70;;;20.70;39.90;;;;;;5072919;28;20036;-52
2021/03/28 03:34:24;;;;;;;2.17;0.85;;;20.60;39.80;;;;;;5074326;28;20376;-51
2021/03/28 03:36:59;;;;;;;3.05;1.08;;;20.70;39.90;;;;;;5078528;28;20024;-55
2021/03/28 03:39:52;;;;;;;2.45;1.52;;;20.70;39.90;;;;;;5076067;28;20393;-52
2021/03/28 03:42:59;;;;;;;3.67;1.00;;;20.70;39.90;;;;;;5074712;28;20024;-51
2021/03/28 03:45:34;;;;;;;1.67;0.93;;;20.70;39.90;;;;;;5077803;28;20070;-54
2021/03/28 03:48:30;;;;;;;1.73;0.80;;;20.70;39.90;;;;;;5075561;28;20028;-49
2021/03/28 03:51:33;;;;;;;2.22;0.80;;;20.70;39.90;;;;;;5094055;28;20522;-54
2021/03/28 03:54:08;;;;;;;3.05;0.80;;;20.70;39.90;;;;;;5093667;28;20068;-52
2021/03/28 03:57:04;;;;;;;2.65;0.90;;;20.70;39.90;;;;;;5089876;28;20050;-50
2021/03/28 03:59:40;;;;;;;1.92;1.05;;;20.70;39.90;;;;;;5085024;28;20070;-51
2021/03/28 04:02:43;;;;;;;2.50;1.00;;;20.70;40.60;;;;;;5076759;28;20474;-51
2021/03/28 04:05:52;;;;;;;2.10;0.88;;;20.70;39.90;;;;;;5074298;28;20036;-50
2021/03/28 04:08:26;;;;;;;2.20;0.80;;;20.70;39.90;;;;;;5080993;28;20052;-53
2021/03/28 04:11:28;;;;;;;1.42;0.73;;;20.70;39.90;;;;;;5092705;28;20020;-48
2021/03/28 04:14:41;;;;;;;2.47;0.93;;;20.70;39.90;;;;;;5083686;28;20129;-49
2021/03/28 04:17:48;;;;;;;1.38;0.70;;;20.70;39.90;;;;;;5022220;28;20037;-48
2021/03/28 04:20:30;;;;;;;1.88;0.73;;;20.70;39.80;;;;;;4969532;28;20097;-50
2021/03/28 04:23:46;;;;;;;1.58;0.90;;;20.70;39.90;;;;;;5004868;28;20096;-56
2021/03/28 04:26:30;;;;;;;1.73;0.70;;;20.70;39.90;;;;;;4984977;28;20041;-50
2021/03/28 04:28:58;;;;;;;2.90;0.88;;;20.70;39.90;;;;;;5005598;28;20107;-52
2021/03/28 04:31:26;;;;;;;1.98;1.17;;;20.70;39.90;;;;;;5006881;28;20462;-48
2021/03/28 04:34:03;;;;;;;2.25;0.80;;;20.70;39.80;;;;;;5007942;28;20068;-52
2021/03/28 04:37:00;;;;;;;2.35;0.82;;;20.70;39.90;;;;;;4991127;28;20072;-53
2021/03/28 04:39:54;;;;;;;2.50;0.95;;;20.70;39.80;;;;;;4981189;28;20038;-50
2021/03/28 04:42:33;;;;;;;1.73;0.75;;;20.70;39.80;;;;;;4975963;28;20037;-49
2021/03/28 04:45:17;;;;;;;4.60;0.98;;;20.70;39.80;;;;;;5008181;28;20241;-53
2021/03/28 04:47:57;;;;;;;2.03;1.05;;;20.70;39.90;;;;;;5007087;28;20087;-51
2021/03/28 04:50:26;;;;;;;2.92;1.27;;;20.70;39.90;;;;;;5025929;28;20046;-50
2021/03/28 04:53:08;;;;;;;2.92;1.00;;;20.70;39.90;;;;;;5082345;28;20028;-52
2021/03/28 04:55:49;;;;;;;2.15;1.20;;;20.70;39.90;;;;;;5082453;28;20025;-53
2021/03/28 04:58:45;;;;;;;1.63;0.75;;;20.70;39.90;;;;;;5082848;28;20052;-52
2021/03/28 05:01:17;;;;;;;3.25;1.05;;;20.70;39.90;;;;;;5086867;28;20028;-49
2021/03/28 05:04:05;;;;;;;1.42;0.80;;;20.70;39.80;;;;;;5082304;28;20098;-54
2021/03/28 05:06:49;;;;;;;2.92;1.13;;;20.70;39.90;;;;;;5080834;28;20024;-52
2021/03/28 05:09:44;;;;;;;1.73;0.90;;;20.70;39.80;;;;;;5085158;28;20118;-55
2021/03/28 05:12:40;;;;;;;2.40;0.88;;;20.70;39.90;;;;;;5079232;28;20051;-51
2021/03/28 05:15:20;;;;;;;1.40;0.80;;;20.70;39.80;;;;;;5080052;28;20055;-54
2021/03/28 05:17:58;;;;;;;1.77;0.98;;;20.70;39.90;;;;;;5083949;28;20111;-53
2021/03/28 05:20:38;;;;;;;1.90;0.80;;;20.70;39.90;;;;;;5082153;28;20067;-51
2021/03/28 05:23:40;;;;;;;3.78;1.60;;;20.70;39.90;;;;;;5078410;28;20028;-50
2021/03/28 05:26:06;;;;;;;;;;;20.70;39.80;;;;;;5084257;28;20032;-52
2021/03/28 05:28:50;;;;;;;3.20;0.88;;;20.70;39.90;;;;;;5079697;28;20280;-52
2021/03/28 05:31:40;;;;;;;3.78;1.25;;;20.70;39.90;;;;;;5083932;28;20052;-51
2021/03/28 05:34:23;;;;;;;5.10;1.55;;;20.70;39.90;;;;;;5079765;28;20039;-53
2021/03/28 05:37:07;;;;;;;2.75;1.30;;;20.70;39.80;;;;;;5080813;28;20111;-55
2021/03/28 05:39:38;;;;;;;2.55;0.88;;;20.70;39.90;;;;;;5079298;28;20028;-52
2021/03/28 05:42:27;;;;;;;2.33;1.17;;;20.70;39.80;;;;;;5082321;28;20028;-54
2021/03/28 05:45:29;;;;;;;1.98;0.98;;;20.70;39.90;;;;;;5081293;28;20051;-53
2021/03/28 05:48:32;;;;;;;3.38;1.48;;;20.70;39.90;;;;;;5079362;28;20052;-52
2021/03/28 05:51:35;;;;;;;4.53;1.35;;;20.70;39.80;;;;;;5083273;28;20044;-52
2021/03/28 05:54:26;;;;;;;2.88;1.17;;;20.70;39.80;;;;;;5081460;28;20044;-51
2021/03/28 05:57:27;;;;;;;1.58;0.93;;;20.70;39.80;;;;;;5080949;28;20568;-51
2021/03/28 06:00:08;;;;;;;3.08;1.33;;;20.70;39.80;;;;;;5082356;28;20465;-54
2021/03/28 06:03:11;;;;;;;2.60;1.17;;;20.70;39.80;;;;;;5082489;28;20063;-53
2021/03/28 06:05:54;;;;;;;1.15;0.75;;;20.70;39.80;;;;;;5082698;28;20032;-53
2021/03/28 06:08:35;;;;;;;4.13;1.38;;;20.70;39.80;;;;;;5079209;28;20049;-53
2021/03/28 06:11:38;;;;;;;2.60;1.17;;;20.70;39.90;;;;;;5081657;28;20028;-51
2021/03/28 06:14:29;;;;;;;2.30;1.20;;;20.70;39.80;;;;;;5076877;28;20115;-52
2021/03/28 06:17:22;;;;;;;1.83;0.82;;;20.70;39.80;;;;;;5079166;28;20033;-49
2021/03/28 06:20:15;;;;;;;4.30;1.05;;;20.70;39.90;;;;;;5080373;28;20033;-51
2021/03/28 06:23:01;;;;;;;5.22;1.20;;;20.80;40.20;;;;;;5081343;28;20033;-55
2021/03/28 06:25:53;;;;;;;3.63;1.23;;;20.80;40.20;;;;;;5077320;28;20029;-53
2021/03/28 06:28:46;;;;;;;4.93;1.43;;;20.80;40.30;;;;;;5046393;28;20051;-50
2021/03/28 06:31:36;;;;;;;6.13;0.98;;;20.80;40.50;;;;;;5075856;28;20270;-54
2021/03/28 06:34:28;;;;;;;4.35;1.30;;;20.80;40.90;;;;;;5071339;28;20063;-51
2021/03/28 06:37:45;;;;;;;3.80;0.98;;;20.90;41.00;;;;;;5070199;28;20020;-54
2021/03/28 06:40:47;;;;;;;4.53;1.33;;;20.90;41.30;;;;;;5048655;28;20052;-51
2021/03/28 06:43:43;;;;;;;7.50;1.45;;;20.80;41.30;;;;;;5089958;28;20036;-52
2021/03/28 06:46:27;;;;;;;5.13;1.30;;;20.90;41.40;;;;;;5083323;28;20036;-54
2021/03/28 06:49:17;;;;;;;5.38;1.55;;;20.90;41.40;;;;;;5088928;28;20027;-52
2021/03/28 06:51:54;;;;;;;4.50;1.17;;;20.80;41.50;;;;;;5077554;28;20033;-52
2021/03/28 06:55:16;;;;;;;3.42;1.00;;;20.90;41.70;;;;;;5071482;28;20037;-53
2021/03/28 06:57:49;;;;;;;4.70;1.30;;;20.90;42.00;;;;;;5018562;28;20054;-53
2021/03/28 07:00:42;;;;;;;2.88;1.05;;;20.90;42.00;;;;;;5000920;28;20463;-55
2021/03/28 07:03:35;;;;;;;4.82;1.20;;;20.90;42.10;;;;;;5022443;28;20042;-57
2021/03/28 07:06:32;;;;;;;5.82;1.17;;;20.90;42.10;;;;;;5019520;28;20110;-58
2021/03/28 07:09:16;;;;;;;25.67;2.78;;;20.90;42.10;;;;;;5000511;28;20532;-54
2021/03/28 07:12:26;;;;;;;18.13;2.45;;;21.00;42.20;;;;;;5011598;28;20038;-56
2021/03/28 07:15:07;;;;;;;20.10;2.45;;;21.00;42.00;;;;;;5015401;28;20042;-58
2021/03/28 07:17:36;;;;;;;12.35;1.77;;;20.90;42.10;;;;;;5008722;28;20056;-54
2021/03/28 07:20:01;;;;;;;17.55;1.90;;;21.00;42.20;;;;;;5016879;28;20136;-52
2021/03/28 07:23:03;;;;;;;9.75;1.80;;;20.90;42.40;;;;;;5015271;28;20529;-57
2021/03/28 07:25:54;;;;;;;9.27;1.33;;;20.90;42.30;;;;;;5020759;28;20042;-56
2021/03/28 07:28:34;;;;;;;7.18;1.20;;;20.90;42.60;;;;;;5043294;28;20128;-56
2021/03/28 07:31:35;;;;;;;13.38;1.63;;;20.90;42.60;;;;;;5085613;28;20154;-56
2021/03/28 07:34:38;;;;;;;7.13;1.50;;;20.80;42.60;;;;;;5085655;28;20040;-56
2021/03/28 07:37:29;;;;;;;7.43;2.00;;;20.80;42.70;;;;;;5085407;28;20036;-56
2021/03/28 07:40:15;;;;;;;8.50;1.50;;;20.90;42.70;;;;;;5084476;28;20085;-55
2021/03/28 07:42:59;;;;;;;4.82;1.45;;;20.90;42.70;;;;;;5080748;28;20024;-57
2021/03/28 07:45:53;;;;;;;4.53;1.30;;;20.90;42.60;;;;;;5086371;28;20376;-56
2021/03/28 07:48:51;;;;;;;2.65;1.40;;;20.90;42.60;;;;;;5073610;28;20032;-52
2021/03/28 07:51:36;;;;;;;10.15;1.38;;;20.90;42.70;;;;;;5088760;28;20448;-50
2021/03/28 07:54:35;;;;;;;10.10;1.80;;;20.90;42.60;;;;;;5080268;28;20546;-59
2021/03/28 07:57:21;;;;;;;5.22;2.13;;;21.00;42.70;;;;;;5073792;28;20041;-52
2021/03/28 08:00:07;;;;;;;8.10;1.38;;;21.00;42.60;;;;;;5081526;28;20024;-51
2021/03/28 08:03:08;;;;;;;5.97;1.30;;;21.00;42.80;;;;;;5092527;28;20028;-60
2021/03/28 08:06:11;;;;;;;6.10;1.60;;;21.00;42.70;;;;;;5093440;28;20047;-56
2021/03/28 08:08:55;;;;;;;12.90;1.77;;;21.00;42.50;;;;;;5078956;28;20044;-53
2021/03/28 08:11:44;;;;;;;4.82;1.50;;;20.90;40.70;;;;;;5083978;28;20085;-50
2021/03/28 08:14:18;;;;;;;8.05;1.40;;;20.80;42.00;;;;;;5074405;28;20048;-50
2021/03/28 08:17:01;;;;;;;7.13;1.35;;;20.90;42.30;;;;;;5079971;28;20056;-54
2021/03/28 08:19:55;;;;;;;4.22;1.30;;;20.80;42.20;;;;;;5089971;28;20028;-56
2021/03/28 08:22:46;;;;;;;5.35;1.38;;;20.90;42.60;;;;;;5090930;28;20161;-49
2021/03/28 08:25:36;;;;;;;8.90;1.30;;;20.90;42.40;;;;;;5080599;28;20052;-54
2021/03/28 08:28:27;;;;;;;9.15;2.13;;;20.90;42.90;;;;;;5086827;28;20511;-51
2021/03/28 08:31:14;;;;;;;8.68;1.35;;;20.90;43.00;;;;;;5072193;28;20029;-56
2021/03/28 08:34:17;;;;;;;9.45;1.50;;;20.90;42.90;;;;;;5072028;28;20048;-54
2021/03/28 08:37:01;;;;;;;;;;;20.90;43.00;;;;;;5079384;28;20477;-53
2021/03/28 08:39:35;;;;;;;3.45;1.15;;;20.90;43.30;;;;;;5082734;28;19915;-55
2021/03/28 08:42:22;;;;;;;5.90;1.70;;;20.90;43.50;;;;;;5071435;28;20048;-52
2021/03/28 08:45:16;;;;;;;6.22;1.20;;;20.90;43.70;;;;;;5080802;28;20464;-51
2021/03/28 08:47:50;;;;;;;4.18;1.15;;;20.90;43.70;;;;;;5085131;28;20084;-49
2021/03/28 08:50:56;;;;;;;5.38;1.30;;;20.90;43.80;;;;;;5092150;28;20027;-48
2021/03/28 08:53:25;;;;;;;4.65;1.35;;;20.90;43.80;;;;;;5092037;28;20096;-49
2021/03/28 08:56:15;;;;;;;4.22;1.17;;;20.90;43.90;;;;;;5086526;28;20030;-49
2021/03/28 08:59:04;;;;;;;6.00;1.23;;;20.90;44.00;;;;;;5091218;28;20556;-49
2021/03/28 09:02:02;;;;;;;7.45;1.25;;;20.90;44.00;;;;;;5077361;28;21755;-61
2021/03/28 09:04:58;;;;;;;3.55;1.00;;;20.90;44.00;;;;;;5085273;28;20085;-56
2021/03/28 09:07:48;;;;;;;6.07;1.60;;;20.90;43.80;;;;;;5089290;28;20040;-49
2021/03/28 09:10:49;;;;;;;7.22;1.13;;;20.90;43.80;;;;;;5092177;28;20042;-46
2021/03/28 09:13:41;;;;;;;5.55;1.58;;;20.90;43.60;;;;;;5073002;28;20131;-57
2021/03/28 09:16:27;;;;;;;7.18;1.50;;;20.90;43.70;;;;;;5081171;28;20099;-60
2021/03/28 09:19:04;;;;;;;6.75;1.33;;;20.90;43.50;;;;;;5084357;28;20032;-50
2021/03/28 09:21:29;;;;;;;6.63;1.02;;;20.90;43.40;;;;;;5073817;28;20020;-53
2021/03/28 09:24:32;;;;;;;4.03;0.93;;;20.90;43.30;;;;;;5084949;28;20032;-54
2021/03/28 09:27:26;;;;;;;3.55;1.58;;;20.90;43.30;;;;;;5074325;28;20028;-57
2021/03/28 09:30:19;;;;;;;4.43;1.05;;;20.90;43.30;;;;;;5077037;28;20028;-53
2021/03/28 09:32:55;;;;;;;4.90;1.33;;;20.90;43.30;;;;;;5071459;28;20411;-56
2021/03/28 09:35:36;;;;;;;12.02;1.50;;;21.00;43.90;;;;;;5076606;28;20025;-51
2021/03/28 09:38:39;;;;;;;5.53;1.13;;;21.00;44.00;;;;;;5082411;28;20031;-48
2021/03/28 09:41:27;;;;;;;6.05;1.30;;;21.00;44.40;;;;;;5071300;28;20058;-52
2021/03/28 09:44:35;;;;;;;4.63;1.25;;;21.00;44.30;;;;;;5080264;28;20435;-54
2021/03/28 09:47:21;;;;;;;7.82;1.60;;;20.60;34.90;;;;;;5081519;28;20140;-50
2021/03/28 09:50:10;;;;;;;8.48;1.55;;;20.10;32.10;;;;;;5089800;28;20055;-48
2021/03/28 09:53:20;;;;;;;5.40;1.63;;;19.60;32.10;;;;;;5082873;28;20024;-50
2021/03/28 09:55:54;;;;;;;4.68;1.25;;;19.70;32.70;;;;;;5050664;28;20064;-48
2021/03/28 09:58:40;;;;;;;3.67;1.27;;;19.40;32.00;;;;;;5089442;28;20393;-51
2021/03/28 10:01:22;;;;;;;6.18;1.15;;;19.30;34.40;;;;;;5071865;28;20048;-47
2021/03/28 10:04:00;;;;;;;4.55;1.20;;;19.30;33.80;;;;;;5082982;28;20039;-49
2021/03/28 10:06:26;;;;;;;2.88;1.23;;;19.50;33.50;;;;;;5078771;28;20115;-53
2021/03/28 10:09:10;;;;;;;3.50;1.10;;;19.60;31.40;;;;;;5089483;28;20098;-51
2021/03/28 10:11:46;;;;;;;7.75;1.20;;;19.60;33.30;;;;;;5074731;28;20105;-52
2021/03/28 10:14:46;;;;;;;3.95;1.20;;;19.50;30.90;;;;;;5071707;28;20044;-55
2021/03/28 10:17:27;;;;;;;2.88;1.10;;;19.40;30.60;;;;;;5080203;28;20024;-48
2021/03/28 10:20:10;;;;;;;4.17;1.00;;;19.50;31.20;;;;;;5082022;28;20060;-48
2021/03/28 10:22:57;;;;;;;3.50;1.17;;;19.40;31.10;;;;;;5073879;28;20423;-50
2021/03/28 10:25:32;;;;;;;4.05;1.08;;;19.40;31.30;;;;;;5085121;28;20032;-49
2021/03/28 10:28:37;;;;;;;3.38;1.00;;;19.30;30.90;;;;;;5071219;28;20109;-50
2021/03/28 10:31:13;;;;;;;5.90;1.40;;;19.30;31.40;;;;;;5070817;28;20024;-49
2021/03/28 10:33:51;;;;;;;2.63;1.00;;;19.10;30.50;;;;;;5071750;28;20044;-47
2021/03/28 10:36:38;;;;;;;4.43;1.30;;;19.20;29.60;;;;;;5091061;28;20028;-49
2021/03/28 10:39:24;;;;;;;4.05;1.35;;;19.30;30.10;;;;;;5070882;28;20029;-54
2021/03/28 10:41:52;;;;;;;3.88;1.35;;;19.30;30.50;;;;;;5070544;28;21404;-48
2021/03/28 10:44:26;;;;;;;3.53;1.35;;;19.40;30.40;;;;;;5072122;28;20060;-50
2021/03/28 10:47:20;;;;;;;3.05;1.30;;;19.60;30.50;;;;;;5080941;28;20035;-49
2021/03/28 10:50:00;;;;;;;3.70;1.52;;;19.50;30.90;;;;;;5080264;28;20031;-48
2021/03/28 10:52:31;;;;;;;3.38;1.05;;;19.40;29.60;;;;;;5086146;28;20036;-50
2021/03/28 10:55:12;;;;;;;3.77;1.87;;;19.40;30.20;;;;;;5089909;28;20048;-50
2021/03/28 10:57:59;;;;;;;3.38;1.30;;;19.40;29.40;;;;;;5079350;28;20430;-49
2021/03/28 11:00:43;;;;;;;3.15;1.40;;;19.30;30.60;;;;;;5088763;28;20070;-49
2021/03/28 11:03:20;;;;;;;4.18;1.15;;;19.40;30.20;;;;;;5081960;28;20042;-49
2021/03/28 11:06:23;;;;;;;4.47;1.40;;;19.50;30.70;;;;;;5081820;28;20044;-47
2021/03/28 11:09:15;;;;;;;3.85;1.08;;;19.60;29.40;;;;;;5082588;28;20515;-52
2021/03/28 11:11:58;;;;;;;3.70;1.43;;;19.50;30.00;;;;;;5074802;28;20048;-49
2021/03/28 11:15:03;;;;;;;3.33;0.95;;;19.50;29.50;;;;;;5087811;28;20058;-47
2021/03/28 11:18:02;;;;;;;4.40;1.23;;;19.40;29.30;;;;;;5074515;28;20428;-47
2021/03/28 11:20:54;;;;;;;5.25;1.48;;;19.30;30.00;;;;;;5076650;28;20036;-48
2021/03/28 11:24:15;;;;;;;3.42;1.10;;;19.50;29.10;;;;;;5066157;28;20036;-48
2021/03/28 11:26:49;;;;;;;4.18;1.42;;;19.50;29.60;;;;;;5061460;28;20381;-50
2021/03/28 11:29:55;;;;;;;6.15;1.65;;;19.60;28.90;;;;;;5082202;28;20067;-51
2021/03/28 11:32:30;;;;;;;3.83;1.50;;;19.50;29.10;;;;;;5081241;28;20024;-50
2021/03/28 11:35:26;;;;;;;2.67;1.20;;;19.40;29.60;;;;;;5080894;28;20032;-47
2021/03/28 11:38:15;;;;;;;7.90;1.60;;;19.40;29.20;;;;;;5083353;28;20023;-47
2021/03/28 11:40:43;;;;;;;7.10;1.60;;;19.40;30.40;;;;;;5086254;28;20032;-54
2021/03/28 11:43:10;;;;;;;4.55;1.35;;;19.50;29.50;;;;;;5090956;28;20035;-55
2021/03/28 11:45:48;;;;;;;6.53;1.40;;;19.40;29.50;;;;;;5088990;28;20028;-48
2021/03/28 11:48:31;;;;;;;5.15;1.25;;;19.50;30.00;;;;;;5090492;28;20384;-48
2021/03/28 11:51:22;;;;;;;4.15;1.30;;;19.60;32.30;;;;;;5073316;28;20436;-47
2021/03/28 11:54:10;;;;;;;3.10;0.93;;;19.70;30.70;;;;;;5083302;28;20043;-51
2021/03/28 11:56:57;;;;;;;2.45;1.02;;;19.80;31.70;;;;;;5071198;28;20156;-52
2021/03/28 11:59:23;;;;;;;6.97;1.55;;;19.70;30.70;;;;;;5074270;28;20025;-51
2021/03/28 12:01:55;;;;;;;7.45;1.60;;;19.60;30.60;;;;;;5077192;28;20043;-51
2021/03/28 12:04:37;;;;;;;4.53;1.20;;;19.80;30.20;;;;;;5087254;28;20035;-50
2021/03/28 12:07:31;;;;;;;8.73;1.55;;;19.80;29.60;;;;;;5072087;28;20179;-48
2021/03/28 12:09:59;;;;;;;4.45;1.50;;;19.70;30.40;;;;;;5072701;28;20474;-58
2021/03/28 12:12:31;;;;;;;3.83;1.42;;;19.70;29.90;;;;;;5074933;28;20048;-44
2021/03/28 12:15:35;;;;;;;3.45;1.20;;;19.80;29.70;;;;;;5081763;28;20505;-55
2021/03/28 12:18:23;;;;;;;2.92;1.20;;;19.80;29.70;;;;;;5088899;28;20056;-51
2021/03/28 12:21:07;;;;;;;4.07;1.20;;;19.90;31.50;;;;;;5085297;28;20103;-54
2021/03/28 12:23:39;;;;;;;3.97;1.50;;;20.20;31.70;;;;;;5093085;28;20031;-54
2021/03/28 12:26:21;;;;;;;19.88;2.00;;;20.20;30.30;;;;;;5074701;28;20052;-46
2021/03/28 12:29:06;;;;;;;7.63;2.42;;;20.30;30.60;;;;;;5084070;28;20115;-44
2021/03/28 12:31:40;;;;;;;7.15;2.22;;;20.20;29.40;;;;;;5086773;28;20046;-53
2021/03/28 12:34:18;;;;;;;5.60;2.40;;;20.10;29.50;;;;;;5090527;28;20028;-48
2021/03/28 12:37:04;;;;;;;7.13;1.77;;;20.10;29.60;;;;;;5072478;28;20021;-46
2021/03/28 12:39:33;;;;;;;4.03;1.73;;;19.90;29.40;;;;;;5087572;28;20031;-46
2021/03/28 12:42:02;;;;;;;4.53;1.45;;;20.20;32.00;;;;;;5090527;28;20077;-50
2021/03/28 12:44:33;;;;;;;4.72;1.67;;;20.40;31.70;;;;;;5077027;28;20034;-46
2021/03/28 12:47:18;;;;;;;5.50;1.55;;;20.60;32.20;;;;;;5075529;28;20488;-50
2021/03/28 12:50:00;;;;;;;5.25;1.88;;;20.80;32.90;;;;;;5083913;28;20032;-46
2021/03/28 12:52:35;;;;;;;;;;;20.90;33.30;;;;;;5093410;28;20028;-47
2021/03/28 12:55:04;;;;;;;5.22;1.63;;;20.90;33.80;;;;;;5080556;28;20384;-46
2021/03/28 12:57:59;;;;;;;4.80;1.35;;;20.90;34.10;;;;;;5076628;28;20032;-58
2021/03/28 13:00:51;;;;;;;3.33;1.50;;;21.10;34.10;;;;;;5054946;28;20041;-61
2021/03/28 13:03:43;;;;;;;5.32;1.50;;;21.10;34.20;;;;;;5093200;28;20107;-59
2021/03/28 13:06:18;;;;;;;7.05;1.95;;;21.10;34.20;;;;;;5076385;28;20114;-54
2021/03/28 13:08:54;;;;;;;3.50;1.30;;;21.20;34.70;;;;;;5073090;28;20051;-52
2021/03/28 13:12:11;;;;;;;4.82;1.40;;;21.40;34.60;;;;;;5073085;28;20032;-43
2021/03/28 13:14:42;;;;;;;3.45;1.23;;;21.40;34.50;;;;;;5080390;28;20036;-51
2021/03/28 13:17:13;;;;;;;6.05;1.90;;;21.50;34.40;;;;;;5085962;28;20111;-48
2021/03/28 13:19:45;;;;;;;3.63;1.20;;;21.60;34.50;;;;;;5091452;28;20413;-47
2021/03/28 13:22:40;;;;;;;4.95;1.83;;;21.70;34.50;;;;;;5085025;28;20039;-48
2021/03/28 13:25:27;;;;;;;3.65;1.52;;;21.70;34.50;;;;;;5085011;28;20347;-52
2021/03/28 13:27:59;;;;;;;2.28;1.02;;;21.70;34.70;;;;;;5071302;28;20443;-47
2021/03/28 13:30:29;;;;;;;;;;;21.80;34.70;;;;;;5072365;28;20035;-55
2021/03/28 13:32:57;;;;;;;2.88;1.30;;;21.80;34.90;;;;;;5072272;28;19908;-53
2021/03/28 13:35:41;;;;;;;5.05;1.80;;;21.80;34.90;;;;;;5084302;28;20036;-47
2021/03/28 13:38:26;;;;;;;3.67;1.80;;;21.90;35.00;;;;;;5076272;28;20118;-50
2021/03/28 13:40:55;;;;;;;3.40;1.85;;;21.90;34.90;;;;;;5089604;28;20024;-50
2021/03/28 13:43:28;;;;;;;3.60;1.80;;;22.00;35.00;;;;;;5073658;28;20123;-53
2021/03/28 13:46:10;;;;;;;4.35;1.58;;;22.00;35.20;;;;;;5087651;28;20504;-52
2021/03/28 13:48:36;;;;;;;3.65;1.20;;;22.10;35.20;;;;;;5090749;28;20030;-54
2021/03/28 13:51:13;;;;;;;3.97;1.73;;;22.10;35.20;;;;;;5090320;28;20103;-54
2021/03/28 13:53:54;;;;;;;3.60;1.25;;;22.10;35.20;;;;;;5076337;28;20059;-53
2021/03/28 13:56:38;;;;;;;4.07;1.70;;;22.00;35.20;;;;;;5077766;28;20028;-55
2021/03/28 13:59:18;;;;;;;4.38;1.35;;;22.20;35.40;;;;;;5081462;28;20054;-51
2021/03/28 14:01:49;;;;;;;7.95;1.67;;;22.20;35.40;;;;;;5072001;28;20097;-52
2021/03/28 14:04:29;;;;;;;6.85;1.88;;;22.20;35.40;;;;;;5087985;28;20036;-48
2021/03/28 14:07:20;;;;;;;7.40;1.50;;;22.10;35.60;;;;;;5065060;28;20025;-47
2021/03/28 14:10:04;;;;;;;8.95;1.45;;;22.10;36.00;;;;;;5063606;28;20072;-42
2021/03/28 14:12:50;;;;;;;7.03;1.77;;;22.00;36.10;;;;;;5092210;28;20024;-46
2021/03/28 14:15:22;;;;;;;4.43;1.52;;;22.00;36.10;;;;;;5081554;28;20032;-49
2021/03/28 14:18:14;;;;;;;;;;;22.00;36.20;;;;;;5091320;28;20107;-51
2021/03/28 14:21:10;;;;;;;4.63;1.48;;;22.00;36.10;;;;;;5069396;28;19908;-59
2021/03/28 14:23:48;;;;;;;7.50;1.63;;;22.00;36.20;;;;;;5067543;28;20041;-54